sensor_id;sensor_type;location;lat;lon;timestamp;pressure;altitude;pressure_sealevel;temperature;humidity
5284;BME280;15377;48.540;9.268;2023-03-04T00:00:04;97959.97;;;-1.55;100.00
5284;BME280;15377;48.540;9.268;2023-03-04T00:02:30;97944.50;;;-1.72;100.00
5284;BME280;15377;48.540;9.268;2023-03-04T00:04:55;97965.81;;;-1.46;100.00
5284;BME280;15377;48.540;9.268;2023-03-04T00:07:21;97951.22;;;-1.27;100.00
5284;BME280;15377;48.540;9.268;2023-03-04T00:09:46;97959.34;;;-1.20;100.00
5284;BME280;15377;48.540;9.268;2023-03-04T00:12:11;97957.75;;;-1.32;100.00
5284;BME280;15377;48.540;9.268;2023-03-04T00:14:37;97960.88;;;-1.26;100.00
5284;BME280;15377;48.540;9.268;2023-03-04T00:17:03;97959.34;;;-1.20;100.00
5284;BME280;15377;48.540;9.268;2023-03-04T00:19:29;97967.81;;;-1.22;100.00
5284;BME280;15377;48.540;9.268;2023-03-04T00:21:54;97957.41;;;-1.16;100.00
5284;BME280;15377;48.540;9.268;2023-03-04T00:24:20;97968.59;;;-1.14;100.00
5284;BME280;15377;48.540;9.268;2023-03-04T00:26:45;97970.16;;;-1.13;100.00
5284;BME280;15377;48.540;9.268;2023-03-04T00:29:10;97962.00;;;-1.31;100.00
5284;BME280;15377;48.540;9.268;2023-03-04T00:31:36;97964.66;;;-1.41;100.00
5284;BME280;15377;48.540;9.268;2023-03-04T00:34:01;97969.28;;;-1.49;100.00
5284;BME280;15377;48.540;9.268;2023-03-04T00:36:27;97955.34;;;-1.54;100.00
5284;BME280;15377;48.540;9.268;2023-03-04T00:38:52;97956.09;;;-1.57;100.00
5284;BME280;15377;48.540;9.268;2023-03-04T00:41:17;97953.00;;;-1.63;100.00
5284;BME280;15377;48.540;9.268;2023-03-04T00:43:43;97965.28;;;-1.72;100.00
5284;BME280;15377;48.540;9.268;2023-03-04T00:46:08;97952.09;;;-1.91;100.00
5284;BME280;15377;48.540;9.268;2023-03-04T00:48:33;97937.75;;;-2.02;100.00
5284;BME280;15377;48.540;9.268;2023-03-04T00:50:58;97951.31;;;-1.92;100.00
5284;BME280;15377;48.540;9.268;2023-03-04T00:53:24;97955.09;;;-2.03;100.00
5284;BME280;15377;48.540;9.268;2023-03-04T00:55:49;97953.53;;;-2.04;100.00
5284;BME280;15377;48.540;9.268;2023-03-04T00:58:14;97958.94;;;-2.04;100.00
5284;BME280;15377;48.540;9.268;2023-03-04T01:00:40;97962.78;;;-2.05;100.00
5284;BME280;15377;48.540;9.268;2023-03-04T01:03:05;97955.78;;;-2.13;100.00
5284;BME280;15377;48.540;9.268;2023-03-04T01:05:31;97934.63;;;-2.11;100.00
5284;BME280;15377;48.540;9.268;2023-03-04T01:07:58;97921.13;;;-2.11;100.00
5284;BME280;15377;48.540;9.268;2023-03-04T01:10:23;97947.09;;;-1.89;100.00
5284;BME280;15377;48.540;9.268;2023-03-04T01:12:49;97946.00;;;-1.74;100.00
5284;BME280;15377;48.540;9.268;2023-03-04T01:15:14;97929.06;;;-1.71;100.00
5284;BME280;15377;48.540;9.268;2023-03-04T01:17:40;97946.00;;;-1.74;100.00
5284;BME280;15377;48.540;9.268;2023-03-04T01:20:07;97945.91;;;-1.92;100.00
5284;BME280;15377;48.540;9.268;2023-03-04T01:22:32;97946.69;;;-1.91;100.00
5284;BME280;15377;48.540;9.268;2023-03-04T01:24:57;97938.38;;;-2.26;100.00
5284;BME280;15377;48.540;9.268;2023-03-04T01:27:23;97933.69;;;-2.36;100.00
5284;BME280;15377;48.540;9.268;2023-03-04T01:29:48;97946.34;;;-2.40;100.00
5284;BME280;15377;48.540;9.268;2023-03-04T01:32:13;97934.03;;;-2.41;100.00
5284;BME280;15377;48.540;9.268;2023-03-04T01:34:39;97928.19;;;-2.50;100.00
5284;BME280;15377;48.540;9.268;2023-03-04T01:37:05;97944.53;;;-2.29;100.00
5284;BME280;15377;48.540;9.268;2023-03-04T01:39:30;97944.19;;;-2.21;100.00
5284;BME280;15377;48.540;9.268;2023-03-04T01:41:55;97940.97;;;-2.40;100.00
5284;BME280;15377;48.540;9.268;2023-03-04T01:44:21;97937.88;;;-2.42;100.00
5284;BME280;15377;48.540;9.268;2023-03-04T01:46:50;97911.88;;;-2.68;100.00
5284;BME280;15377;48.540;9.268;2023-03-04T01:49:16;97937.75;;;-2.56;100.00
5284;BME280;15377;48.540;9.268;2023-03-04T01:51:43;97940.88;;;-2.54;100.00
5284;BME280;15377;48.540;9.268;2023-03-04T01:54:10;97936.22;;;-2.57;100.00
5284;BME280;15377;48.540;9.268;2023-03-04T01:56:38;97941.59;;;-2.57;100.00
5284;BME280;15377;48.540;9.268;2023-03-04T01:59:13;97940.75;;;-2.68;100.00
5284;BME280;15377;48.540;9.268;2023-03-04T02:01:42;97921.44;;;-2.77;100.00
5284;BME280;15377;48.540;9.268;2023-03-04T02:04:08;97929.97;;;-2.68;100.00
5284;BME280;15377;48.540;9.268;2023-03-04T02:06:36;97933.06;;;-2.66;100.00
5284;BME280;15377;48.540;9.268;2023-03-04T02:09:02;97916.47;;;-2.72;100.00
5284;BME280;15377;48.540;9.268;2023-03-04T02:11:28;97905.16;;;-2.91;100.00
5284;BME280;15377;48.540;9.268;2023-03-04T02:13:53;97915.56;;;-2.90;100.00
5284;BME280;15377;48.540;9.268;2023-03-04T02:16:18;97922.09;;;-2.91;100.00
5284;BME280;15377;48.540;9.268;2023-03-04T02:18:44;97924.44;;;-2.86;100.00
5284;BME280;15377;48.540;9.268;2023-03-04T02:21:14;97926.75;;;-2.84;100.00
5284;BME280;15377;48.540;9.268;2023-03-04T02:26:29;97918.22;;;-2.93;100.00
5284;BME280;15377;48.540;9.268;2023-03-04T02:28:56;97923.22;;;-2.92;100.00
5284;BME280;15377;48.540;9.268;2023-03-04T02:31:27;97917.28;;;-2.64;100.00
5284;BME280;15377;48.540;9.268;2023-03-04T02:33:57;97930.72;;;-2.71;100.00
5284;BME280;15377;48.540;9.268;2023-03-04T02:36:23;97919.81;;;-2.85;100.00
5284;BME280;15377;48.540;9.268;2023-03-04T02:38:50;97922.81;;;-2.94;100.00
5284;BME280;15377;48.540;9.268;2023-03-04T02:41:19;97919.69;;;-2.99;100.00
5284;BME280;15377;48.540;9.268;2023-03-04T02:43:46;97920.44;;;-3.02;100.00
5284;BME280;15377;48.540;9.268;2023-03-04T02:46:13;97873.19;;;-3.36;100.00
5284;BME280;15377;48.540;9.268;2023-03-04T02:48:38;97922.63;;;-3.15;100.00
5284;BME280;15377;48.540;9.268;2023-03-04T02:51:04;97918.00;;;-3.14;100.00
5284;BME280;15377;48.540;9.268;2023-03-04T02:53:30;97919.50;;;-3.17;100.00
5284;BME280;15377;48.540;9.268;2023-03-04T02:55:55;97924.78;;;-2.91;100.00
5284;BME280;15377;48.540;9.268;2023-03-04T02:58:20;97919.75;;;-2.92;100.00
5284;BME280;15377;48.540;9.268;2023-03-04T03:00:46;97928.13;;;-3.01;100.00
5284;BME280;15377;48.540;9.268;2023-03-04T03:03:12;97933.47;;;-3.04;100.00
5284;BME280;15377;48.540;9.268;2023-03-04T03:05:38;97933.22;;;-2.92;100.00
5284;BME280;15377;48.540;9.268;2023-03-04T03:08:03;97929.78;;;-2.89;100.00
5284;BME280;15377;48.540;9.268;2023-03-04T03:10:29;97923.72;;;-2.79;100.00
5284;BME280;15377;48.540;9.268;2023-03-04T03:12:55;97901.84;;;-2.74;100.00
5284;BME280;15377;48.540;9.268;2023-03-04T03:15:20;97923.84;;;-2.62;100.00
5284;BME280;15377;48.540;9.268;2023-03-04T03:17:46;97918.75;;;-2.77;100.00
5284;BME280;15377;48.540;9.268;2023-03-04T03:20:12;97914.75;;;-2.94;100.00
5284;BME280;15377;48.540;9.268;2023-03-04T03:22:40;97925.88;;;-2.95;100.00
5284;BME280;15377;48.540;9.268;2023-03-04T03:25:06;97917.72;;;-3.06;100.00
5284;BME280;15377;48.540;9.268;2023-03-04T03:27:32;97920.22;;;-3.23;100.00
5284;BME280;15377;48.540;9.268;2023-03-04T03:29:58;97918.69;;;-3.24;100.00
5284;BME280;15377;48.540;9.268;2023-03-04T03:32:23;97929.38;;;-3.31;100.00
5284;BME280;15377;48.540;9.268;2023-03-04T03:34:49;97915.44;;;-3.40;100.00
5284;BME280;15377;48.540;9.268;2023-03-04T03:37:14;97924.00;;;-3.31;100.00
5284;BME280;15377;48.540;9.268;2023-03-04T03:39:40;97925.69;;;-3.16;100.00
5284;BME280;15377;48.540;9.268;2023-03-04T03:42:05;97926.63;;;-2.98;100.00
5284;BME280;15377;48.540;9.268;2023-03-04T03:44:31;97915.00;;;-3.09;100.00
5284;BME280;15377;48.540;9.268;2023-03-04T03:46:56;97922.72;;;-3.04;100.00
5284;BME280;15377;48.540;9.268;2023-03-04T03:49:22;97906.34;;;-3.29;100.00
5284;BME280;15377;48.540;9.268;2023-03-04T03:51:47;97921.81;;;-3.19;100.00
5284;BME280;15377;48.540;9.268;2023-03-04T03:54:12;97913.16;;;-3.38;100.00
5284;BME280;15377;48.540;9.268;2023-03-04T03:56:38;97912.50;;;-3.25;100.00
5284;BME280;15377;48.540;9.268;2023-03-04T03:59:03;97921.13;;;-3.09;100.00
5284;BME280;15377;48.540;9.268;2023-03-04T04:01:28;97924.78;;;-3.27;100.00
5284;BME280;15377;48.540;9.268;2023-03-04T04:03:54;97923.66;;;-3.26;100.00
5284;BME280;15377;48.540;9.268;2023-03-04T04:06:19;97926.34;;;-3.26;100.00
5284;BME280;15377;48.540;9.268;2023-03-04T04:08:44;97930.44;;;-3.39;100.00
5284;BME280;15377;48.540;9.268;2023-03-04T04:11:11;97922.28;;;-3.46;100.00
5284;BME280;15377;48.540;9.268;2023-03-04T04:13:36;97929.06;;;-3.26;100.00
5284;BME280;15377;48.540;9.268;2023-03-04T04:16:02;97925.13;;;-3.32;100.00
5284;BME280;15377;48.540;9.268;2023-03-04T04:18:28;97930.03;;;-3.41;100.00
5284;BME280;15377;48.540;9.268;2023-03-04T04:20:54;97919.44;;;-3.24;100.00
5284;BME280;15377;48.540;9.268;2023-03-04T04:23:19;97916.59;;;-3.01;100.00
5284;BME280;15377;48.540;9.268;2023-03-04T04:25:45;97894.78;;;-3.29;100.00
5284;BME280;15377;48.540;9.268;2023-03-04T04:28:10;97901.81;;;-3.54;100.00
5284;BME280;15377;48.540;9.268;2023-03-04T04:30:36;97927.91;;;-3.25;100.00
5284;BME280;15377;48.540;9.268;2023-03-04T04:33:02;97908.00;;;-3.17;100.00
5284;BME280;15377;48.540;9.268;2023-03-04T04:35:30;97911.69;;;-3.32;100.00
5284;BME280;15377;48.540;9.268;2023-03-04T04:37:55;97919.91;;;-3.51;100.00
5284;BME280;15377;48.540;9.268;2023-03-04T04:40:21;97918.28;;;-3.59;100.00
5284;BME280;15377;48.540;9.268;2023-03-04T04:42:46;97921.22;;;-3.71;100.00
5284;BME280;15377;48.540;9.268;2023-03-04T04:45:11;97915.09;;;-3.68;100.00
5284;BME280;15377;48.540;9.268;2023-03-04T04:47:37;97927.91;;;-3.25;100.00
5284;BME280;15377;48.540;9.268;2023-03-04T04:50:03;97916.72;;;-3.27;100.00
5284;BME280;15377;48.540;9.268;2023-03-04T04:52:28;97917.91;;;-3.25;100.00
5284;BME280;15377;48.540;9.268;2023-03-04T04:54:54;97928.16;;;-3.37;100.00
5284;BME280;15377;48.540;9.268;2023-03-04T04:57:19;97928.69;;;-3.58;100.00
5284;BME280;15377;48.540;9.268;2023-03-04T04:59:44;97931.16;;;-3.75;100.00
5284;BME280;15377;48.540;9.268;2023-03-04T05:02:10;97920.25;;;-3.89;100.00
5284;BME280;15377;48.540;9.268;2023-03-04T05:04:35;97929.31;;;-4.00;100.00
5284;BME280;15377;48.540;9.268;2023-03-04T05:07:00;97932.19;;;-4.12;100.00
5284;BME280;15377;48.540;9.268;2023-03-04T05:09:26;97925.97;;;-4.20;100.00
5284;BME280;15377;48.540;9.268;2023-03-04T05:11:51;97929.91;;;-4.10;100.00
5284;BME280;15377;48.540;9.268;2023-03-04T05:14:16;97923.44;;;-3.80;100.00
5284;BME280;15377;48.540;9.268;2023-03-04T05:16:42;97932.09;;;-3.90;100.00
5284;BME280;15377;48.540;9.268;2023-03-04T05:19:07;97913.78;;;-4.10;100.00
5284;BME280;15377;48.540;9.268;2023-03-04T05:21:33;97923.41;;;-4.09;100.00
5284;BME280;15377;48.540;9.268;2023-03-04T05:23:58;97920.69;;;-4.13;100.00
5284;BME280;15377;48.540;9.268;2023-03-04T05:26:23;97931.44;;;-4.13;100.00
5284;BME280;15377;48.540;9.268;2023-03-04T05:28:49;97928.22;;;-4.22;100.00
5284;BME280;15377;48.540;9.268;2023-03-04T05:31:14;97927.81;;;-4.24;100.00
5284;BME280;15377;48.540;9.268;2023-03-04T05:33:40;97892.16;;;-4.21;100.00
5284;BME280;15377;48.540;9.268;2023-03-04T05:36:06;97928.72;;;-3.87;100.00
5284;BME280;15377;48.540;9.268;2023-03-04T05:38:32;97897.56;;;-4.17;100.00
5284;BME280;15377;48.540;9.268;2023-03-04T05:41:00;97927.06;;;-3.95;100.00
5284;BME280;15377;48.540;9.268;2023-03-04T05:43:27;97930.91;;;-3.96;100.00
5284;BME280;15377;48.540;9.268;2023-03-04T05:45:53;97924.22;;;-4.05;100.00
5284;BME280;15377;48.540;9.268;2023-03-04T05:48:18;97914.44;;;-3.91;100.00
5284;BME280;15377;48.540;9.268;2023-03-04T05:50:44;97909.00;;;-3.65;100.00
5284;BME280;15377;48.540;9.268;2023-03-04T05:53:09;97915.75;;;-3.78;100.00
5284;BME280;15377;48.540;9.268;2023-03-04T05:55:34;97943.88;;;-3.72;100.00
5284;BME280;15377;48.540;9.268;2023-03-04T05:58:00;97930.22;;;-3.89;100.00
5284;BME280;15377;48.540;9.268;2023-03-04T06:00:25;97923.16;;;-4.01;100.00
5284;BME280;15377;48.540;9.268;2023-03-04T06:02:51;97927.25;;;-3.81;100.00
5284;BME280;15377;48.540;9.268;2023-03-04T06:05:16;97946.66;;;-3.65;100.00
5284;BME280;15377;48.540;9.268;2023-03-04T06:07:43;97940.91;;;-3.63;100.00
5284;BME280;15377;48.540;9.268;2023-03-04T06:10:10;97944.72;;;-3.64;100.00
5284;BME280;15377;48.540;9.268;2023-03-04T06:12:36;97934.63;;;-4.04;100.00
5284;BME280;15377;48.540;9.268;2023-03-04T06:15:01;97942.38;;;-4.25;100.00
5284;BME280;15377;48.540;9.268;2023-03-04T06:17:28;97956.44;;;-4.35;100.00
5284;BME280;15377;48.540;9.268;2023-03-04T06:19:54;97950.00;;;-4.53;100.00
5284;BME280;15377;48.540;9.268;2023-03-04T06:22:19;97981.06;;;-4.55;100.00
5284;BME280;15377;48.540;9.268;2023-03-04T06:24:45;97963.88;;;-4.51;100.00
5284;BME280;15377;48.540;9.268;2023-03-04T06:27:10;97967.88;;;-4.38;100.00
5284;BME280;15377;48.540;9.268;2023-03-04T06:29:35;97966.44;;;-4.32;100.00
5284;BME280;15377;48.540;9.268;2023-03-04T06:32:01;97965.13;;;-4.19;100.00
5284;BME280;15377;48.540;9.268;2023-03-04T06:34:26;97990.63;;;-4.06;100.00
5284;BME280;15377;48.540;9.268;2023-03-04T06:36:54;97985.59;;;-4.11;100.00
5284;BME280;15377;48.540;9.268;2023-03-04T06:39:19;97979.88;;;-4.06;100.00
5284;BME280;15377;48.540;9.268;2023-03-04T06:41:44;97983.75;;;-4.03;100.00
5284;BME280;15377;48.540;9.268;2023-03-04T06:44:10;97966.66;;;-3.92;100.00
5284;BME280;15377;48.540;9.268;2023-03-04T06:46:35;97979.44;;;-3.82;100.00
5284;BME280;15377;48.540;9.268;2023-03-04T06:49:01;97974.91;;;-3.78;100.00
5284;BME280;15377;48.540;9.268;2023-03-04T06:51:27;97974.91;;;-3.78;100.00
5284;BME280;15377;48.540;9.268;2023-03-04T06:53:52;97988.84;;;-3.69;100.00
5284;BME280;15377;48.540;9.268;2023-03-04T06:56:17;97990.09;;;-3.63;100.00
5284;BME280;15377;48.540;9.268;2023-03-04T06:58:44;97986.03;;;-3.50;100.00
5284;BME280;15377;48.540;9.268;2023-03-04T07:01:13;98005.91;;;-3.29;100.00
5284;BME280;15377;48.540;9.268;2023-03-04T07:03:39;98011.06;;;-3.13;100.00
5284;BME280;15377;48.540;9.268;2023-03-04T07:06:05;98005.00;;;-3.03;100.00
5284;BME280;15377;48.540;9.268;2023-03-04T07:08:30;98005.59;;;-2.87;100.00
5284;BME280;15377;48.540;9.268;2023-03-04T07:10:55;98007.34;;;-2.65;100.00
5284;BME280;15377;48.540;9.268;2023-03-04T07:13:21;97996.38;;;-2.46;100.00
5284;BME280;15377;48.540;9.268;2023-03-04T07:15:46;97989.09;;;-2.39;100.00
5284;BME280;15377;48.540;9.268;2023-03-04T07:18:11;98010.09;;;-2.11;100.00
5284;BME280;15377;48.540;9.268;2023-03-04T07:20:37;98006.72;;;-2.01;100.00
5284;BME280;15377;48.540;9.268;2023-03-04T07:23:02;98011.41;;;-1.95;100.00
5284;BME280;15377;48.540;9.268;2023-03-04T07:25:28;98004.47;;;-1.96;100.00
5284;BME280;15377;48.540;9.268;2023-03-04T07:27:53;98015.72;;;-1.83;100.00
5284;BME280;15377;48.540;9.268;2023-03-04T07:30:19;98023.84;;;-1.76;100.00
5284;BME280;15377;48.540;9.268;2023-03-04T07:32:44;98009.25;;;-1.68;100.00
5284;BME280;15377;48.540;9.268;2023-03-04T07:35:09;98007.78;;;-1.52;100.00
5284;BME280;15377;48.540;9.268;2023-03-04T07:37:35;98023.31;;;-1.31;100.00
5284;BME280;15377;48.540;9.268;2023-03-04T07:40:00;98016.44;;;-1.18;100.00
5284;BME280;15377;48.540;9.268;2023-03-04T07:42:26;98010.31;;;-0.98;100.00
5284;BME280;15377;48.540;9.268;2023-03-04T07:44:51;98018.09;;;-0.79;100.00
5284;BME280;15377;48.540;9.268;2023-03-04T07:47:17;98023.56;;;-0.47;100.00
5284;BME280;15377;48.540;9.268;2023-03-04T07:49:42;98015.06;;;-0.35;100.00
5284;BME280;15377;48.540;9.268;2023-03-04T07:52:08;98017.41;;;-0.13;100.00
5284;BME280;15377;48.540;9.268;2023-03-04T07:54:33;98030.53;;;0.16;100.00
5284;BME280;15377;48.540;9.268;2023-03-04T07:56:58;98032.06;;;0.45;100.00
5284;BME280;15377;48.540;9.268;2023-03-04T07:59:24;98033.56;;;0.60;100.00
5284;BME280;15377;48.540;9.268;2023-03-04T08:01:50;98030.41;;;0.79;100.00
5284;BME280;15377;48.540;9.268;2023-03-04T08:04:15;98023.03;;;0.83;100.00
5284;BME280;15377;48.540;9.268;2023-03-04T08:06:40;98023.78;;;0.87;100.00
5284;BME280;15377;48.540;9.268;2023-03-04T08:09:07;98042.72;;;0.94;100.00
5284;BME280;15377;48.540;9.268;2023-03-04T08:11:35;98045.81;;;1.00;100.00
5284;BME280;15377;48.540;9.268;2023-03-04T08:14:01;98046.22;;;0.98;100.00
5284;BME280;15377;48.540;9.268;2023-03-04T08:16:27;98064.41;;;0.94;100.00
5284;BME280;15377;48.540;9.268;2023-03-04T08:18:55;98063.69;;;0.83;100.00
5284;BME280;15377;48.540;9.268;2023-03-04T08:21:22;98058.25;;;0.83;100.00
5284;BME280;15377;48.540;9.268;2023-03-04T08:23:48;98056.69;;;0.82;100.00
5284;BME280;15377;48.540;9.268;2023-03-04T08:26:19;98057.06;;;0.98;100.00
5284;BME280;15377;48.540;9.268;2023-03-04T08:28:45;98060.50;;;1.09;100.00
5284;BME280;15377;48.540;9.268;2023-03-04T08:31:15;98056.94;;;1.19;100.00
5284;BME280;15377;48.540;9.268;2023-03-04T08:33:41;98052.31;;;1.16;100.00
5284;BME280;15377;48.540;9.268;2023-03-04T08:36:07;98066.56;;;1.34;100.00
5284;BME280;15377;48.540;9.268;2023-03-04T08:38:33;98065.41;;;1.35;100.00
5284;BME280;15377;48.540;9.268;2023-03-04T08:40:58;98056.91;;;1.26;100.00
5284;BME280;15377;48.540;9.268;2023-03-04T08:43:25;98078.94;;;1.35;100.00
5284;BME280;15377;48.540;9.268;2023-03-04T08:45:52;98061.97;;;1.28;100.00
5284;BME280;15377;48.540;9.268;2023-03-04T08:48:18;98076.22;;;1.42;100.00
5284;BME280;15377;48.540;9.268;2023-03-04T08:50:44;98083.19;;;1.36;100.00
5284;BME280;15377;48.540;9.268;2023-03-04T08:53:11;98083.69;;;1.17;100.00
5284;BME280;15377;48.540;9.268;2023-03-04T08:55:37;98099.13;;;1.24;100.00
5284;BME280;15377;48.540;9.268;2023-03-04T08:58:03;98088.28;;;1.27;100.00
5284;BME280;15377;48.540;9.268;2023-03-04T09:00:28;98065.88;;;1.16;100.00
5284;BME280;15377;48.540;9.268;2023-03-04T09:02:56;98094.47;;;1.31;100.00
5284;BME280;15377;48.540;9.268;2023-03-04T09:05:22;98088.97;;;1.45;100.00
5284;BME280;15377;48.540;9.268;2023-03-04T09:07:47;98096.75;;;1.36;100.00
5284;BME280;15377;48.540;9.268;2023-03-04T09:10:12;98109.19;;;1.30;100.00
5284;BME280;15377;48.540;9.268;2023-03-04T09:12:38;98094.47;;;1.31;100.00
5284;BME280;15377;48.540;9.268;2023-03-04T09:15:04;98102.22;;;1.29;100.00
5284;BME280;15377;48.540;9.268;2023-03-04T09:17:31;98098.31;;;1.37;100.00
5284;BME280;15377;48.540;9.268;2023-03-04T09:19:56;98085.19;;;1.25;100.00
5284;BME280;15377;48.540;9.268;2023-03-04T09:22:21;98095.25;;;1.25;100.00
5284;BME280;15377;48.540;9.268;2023-03-04T09:24:47;98104.56;;;1.27;100.00
5284;BME280;15377;48.540;9.268;2023-03-04T09:27:12;98090.28;;;1.16;100.00
5284;BME280;15377;48.540;9.268;2023-03-04T09:29:37;98100.66;;;1.28;100.00
5284;BME280;15377;48.540;9.268;2023-03-04T09:32:03;98102.59;;;1.31;100.00
5284;BME280;15377;48.540;9.268;2023-03-04T09:34:28;98091.44;;;1.19;100.00
5284;BME280;15377;48.540;9.268;2023-03-04T09:36:53;98084.50;;;1.04;100.00
5284;BME280;15377;48.540;9.268;2023-03-04T09:39:19;98103.03;;;1.19;100.00
5284;BME280;15377;48.540;9.268;2023-03-04T09:41:45;98110.75;;;1.31;100.00
5284;BME280;15377;48.540;9.268;2023-03-04T09:44:25;98109.94;;;1.34;100.00
5284;BME280;15377;48.540;9.268;2023-03-04T09:46:54;98100.63;;;1.42;100.00
5284;BME280;15377;48.540;9.268;2023-03-04T09:49:22;98121.56;;;1.35;100.00
5284;BME280;15377;48.540;9.268;2023-03-04T10:00:31;98109.91;;;1.41;100.00
5284;BME280;15377;48.540;9.268;2023-03-04T10:05:32;98101.38;;;1.50;100.00
5284;BME280;15377;48.540;9.268;2023-03-04T10:08:07;98104.88;;;1.40;100.00
5284;BME280;15377;48.540;9.268;2023-03-04T10:10:40;98107.50;;;1.57;100.00
5284;BME280;15377;48.540;9.268;2023-03-04T10:13:14;98097.44;;;1.61;100.00
5284;BME280;15377;48.540;9.268;2023-03-04T10:15:44;98106.72;;;1.60;100.00
5284;BME280;15377;48.540;9.268;2023-03-04T10:23:20;98082.00;;;1.44;100.00
5284;BME280;15377;48.540;9.268;2023-03-04T10:25:46;98103.22;;;1.63;100.00
5284;BME280;15377;48.540;9.268;2023-03-04T10:28:17;98088.09;;;1.69;100.00
5284;BME280;15377;48.540;9.268;2023-03-04T10:33:41;98092.91;;;2.02;100.00
5284;BME280;15377;48.540;9.268;2023-03-04T10:36:33;98102.50;;;2.17;100.00
5284;BME280;15377;48.540;9.268;2023-03-04T10:41:32;98098.56;;;2.25;100.00
5284;BME280;15377;48.540;9.268;2023-03-04T10:46:26;98097.78;;;2.21;100.00
5284;BME280;15377;48.540;9.268;2023-03-04T10:48:52;98104.72;;;2.26;100.00
5284;BME280;15377;48.540;9.268;2023-03-04T10:51:48;98094.56;;;2.37;100.00
5284;BME280;15377;48.540;9.268;2023-03-04T10:57:05;98097.63;;;2.42;100.00
5284;BME280;15377;48.540;9.268;2023-03-04T10:59:45;98061.72;;;2.24;100.00
5284;BME280;15377;48.540;9.268;2023-03-04T11:02:28;98101.41;;;2.52;100.00
5284;BME280;15377;48.540;9.268;2023-03-04T11:05:04;98090.16;;;2.53;100.00
5284;BME280;15377;48.540;9.268;2023-03-04T11:07:38;98075.84;;;2.49;100.00
5284;BME280;15377;48.540;9.268;2023-03-04T11:13:12;98087.31;;;2.67;100.00
5284;BME280;15377;48.540;9.268;2023-03-04T11:18:16;98080.41;;;2.59;100.00
5284;BME280;15377;48.540;9.268;2023-03-04T11:20:46;98072.50;;;2.72;100.00
5284;BME280;15377;48.540;9.268;2023-03-04T11:23:19;98073.97;;;2.80;100.00
5284;BME280;15377;48.540;9.268;2023-03-04T11:25:54;98070.53;;;2.76;100.00
5284;BME280;15377;48.540;9.268;2023-03-04T11:28:39;98061.59;;;2.75;100.00
5284;BME280;15377;48.540;9.268;2023-03-04T11:31:13;98052.19;;;2.83;100.00
5284;BME280;15377;48.540;9.268;2023-03-04T11:33:56;98073.78;;;2.97;100.00
5284;BME280;15377;48.540;9.268;2023-03-04T11:39:01;98058.50;;;2.77;100.00
5284;BME280;15377;48.540;9.268;2023-03-04T11:41:40;98066.94;;;2.86;100.00
5284;BME280;15377;48.540;9.268;2023-03-04T11:44:11;98059.69;;;2.72;100.00
5284;BME280;15377;48.540;9.268;2023-03-04T12:11:11;98031.19;;;3.47;100.00
5284;BME280;15377;48.540;9.268;2023-03-04T12:16:42;98019.34;;;4.10;100.00
5284;BME280;15377;48.540;9.268;2023-03-04T12:22:07;98009.78;;;5.06;100.00
5284;BME280;15377;48.540;9.268;2023-03-04T12:24:46;98005.38;;;5.32;100.00
5284;BME280;15377;48.540;9.268;2023-03-04T12:27:45;97996.88;;;5.62;100.00
5284;BME280;15377;48.540;9.268;2023-03-04T12:32:57;97992.44;;;5.52;100.00
5284;BME280;15377;48.540;9.268;2023-03-04T12:35:35;97989.56;;;5.75;100.00
5284;BME280;15377;48.540;9.268;2023-03-04T12:38:32;97981.66;;;5.96;100.00
5284;BME280;15377;48.540;9.268;2023-03-04T12:54:40;97962.66;;;5.57;100.00
5284;BME280;15377;48.540;9.268;2023-03-04T12:57:22;97963.78;;;5.60;100.00
5284;BME280;15377;48.540;9.268;2023-03-04T13:00:15;97962.25;;;5.75;100.00
5284;BME280;15377;48.540;9.268;2023-03-04T13:02:55;97962.47;;;6.00;100.00
5284;BME280;15377;48.540;9.268;2023-03-04T13:08:45;97956.66;;;5.98;100.00
5284;BME280;15377;48.540;9.268;2023-03-04T13:16:45;97951.19;;;5.82;100.00
5284;BME280;15377;48.540;9.268;2023-03-04T13:24:55;97939.69;;;5.39;100.00
5284;BME280;15377;48.540;9.268;2023-03-04T13:28:40;97949.84;;;5.38;100.00
5284;BME280;15377;48.540;9.268;2023-03-04T13:43:27;97941.78;;;6.15;100.00
5284;BME280;15377;48.540;9.268;2023-03-04T13:51:17;97931.69;;;6.28;100.00
5284;BME280;15377;48.540;9.268;2023-03-04T13:58:43;97943.38;;;6.73;100.00
5284;BME280;15377;48.540;9.268;2023-03-04T14:01:27;97934.09;;;6.83;100.00
5284;BME280;15377;48.540;9.268;2023-03-04T14:03:54;97940.28;;;6.71;100.00
5284;BME280;15377;48.540;9.268;2023-03-04T14:06:23;97940.06;;;6.78;100.00
5284;BME280;15377;48.540;9.268;2023-03-04T14:08:50;97943.22;;;7.05;100.00
5284;BME280;15377;48.540;9.268;2023-03-04T14:11:24;97933.97;;;6.74;100.00
5284;BME280;15377;48.540;9.268;2023-03-04T14:13:51;97928.88;;;6.60;100.00
5284;BME280;15377;48.540;9.268;2023-03-04T14:16:20;97909.09;;;6.40;100.00
5284;BME280;15377;48.540;9.268;2023-03-04T14:19:00;97929.94;;;6.50;100.00
5284;BME280;15377;48.540;9.268;2023-03-04T14:21:26;97917.09;;;6.75;100.00
5284;BME280;15377;48.540;9.268;2023-03-04T14:24:00;97919.72;;;6.79;100.00
5284;BME280;15377;48.540;9.268;2023-03-04T14:26:25;97919.72;;;6.79;100.00
5284;BME280;15377;48.540;9.268;2023-03-04T14:28:51;97914.38;;;6.47;100.00
5284;BME280;15377;48.540;9.268;2023-03-04T14:31:23;97906.03;;;6.38;100.00
5284;BME280;15377;48.540;9.268;2023-03-04T14:33:51;97912.44;;;6.47;100.00
5284;BME280;15377;48.540;9.268;2023-03-04T14:36:20;97909.00;;;6.43;100.00
5284;BME280;15377;48.540;9.268;2023-03-04T14:38:53;97904.59;;;6.33;100.00
5284;BME280;15377;48.540;9.268;2023-03-04T14:46:56;97897.94;;;5.90;100.00
5284;BME280;15377;48.540;9.268;2023-03-04T14:49:24;97899.03;;;5.44;100.00
5284;BME280;15377;48.540;9.268;2023-03-04T14:51:58;97881.34;;;5.17;100.00
5284;BME280;15377;48.540;9.268;2023-03-04T14:54:37;97899.59;;;4.84;100.00
5284;BME280;15377;48.540;9.268;2023-03-04T14:57:22;97895.50;;;4.57;100.00
5284;BME280;15377;48.540;9.268;2023-03-04T14:59:50;97909.75;;;4.25;100.00
5284;BME280;15377;48.540;9.268;2023-03-04T15:02:35;97906.16;;;4.09;100.00
5284;BME280;15377;48.540;9.268;2023-03-04T15:05:22;97899.84;;;3.92;100.00
5284;BME280;15377;48.540;9.268;2023-03-04T15:07:50;97911.50;;;3.93;100.00
5284;BME280;15377;48.540;9.268;2023-03-04T15:10:21;97908.63;;;3.80;100.00
5284;BME280;15377;48.540;9.268;2023-03-04T15:12:55;97904.47;;;3.72;100.00
5284;BME280;15377;48.540;9.268;2023-03-04T15:15:37;97897.72;;;3.80;100.00